createdAt,value
2017-12-29T00:00:04.881Z,4.2
2017-12-29T00:15:04.587Z,4
2017-12-29T00:30:04.400Z,4
2017-12-29T00:45:05.113Z,4.1
2017-12-29T01:00:04.887Z,4
2017-12-29T01:15:04.678Z,4
2017-12-29T01:30:04.768Z,3.9
2017-12-29T01:45:05.771Z,3.9
2017-12-29T02:00:04.967Z,3.8
2017-12-29T02:15:05.981Z,3.9
2017-12-29T02:30:07.917Z,4.1
2017-12-29T02:45:04.291Z,4
2017-12-29T03:00:04.230Z,3.7
2017-12-29T03:15:05.091Z,3.3
2017-12-29T03:30:04.710Z,3
2017-12-29T03:45:05.049Z,2.7
2017-12-29T04:00:04.525Z,2.6
2017-12-29T04:15:06.016Z,2.3
2017-12-29T04:30:04.590Z,2.3
2017-12-29T04:45:04.964Z,2.2
2017-12-29T05:00:04.767Z,2.1
2017-12-29T05:15:08.379Z,2
2017-12-29T05:30:04.705Z,1.8
2017-12-29T05:45:08.545Z,1.7
2017-12-29T06:00:05.205Z,1.6
2017-12-29T06:15:04.678Z,2
2017-12-29T06:30:04.459Z,1.7
2017-12-29T06:45:04.862Z,1.6
2017-12-29T07:00:04.773Z,1.6
2017-12-29T07:15:04.490Z,1.4
2017-12-29T07:30:05.660Z,1.3
2017-12-29T07:45:04.314Z,1.3
2017-12-29T08:00:04.796Z,1.8
2017-12-29T08:15:05.121Z,1.8
2017-12-29T08:30:04.950Z,2.6
2017-12-29T08:45:04.704Z,2.9
2017-12-29T09:00:06.445Z,3.9
2017-12-29T09:15:08.358Z,5.4
2017-12-29T09:30:05.081Z,4.7
2017-12-29T09:45:04.748Z,4.5
2017-12-29T10:00:05.150Z,4.2
2017-12-29T10:15:05.267Z,4
2017-12-29T10:30:04.435Z,4.2
2017-12-29T10:45:04.397Z,4.3
2017-12-29T11:00:04.720Z,4.2
2017-12-29T11:15:06.252Z,4.5
2017-12-29T11:30:05.581Z,4.7
2017-12-29T11:45:21.213Z,4.7
2017-12-29T12:00:04.700Z,5.1
2017-12-29T12:15:04.483Z,5.3
2017-12-29T12:30:04.597Z,5.4
2017-12-29T12:45:05.107Z,5.9
2017-12-29T13:00:05.181Z,6.2
2017-12-29T13:15:04.959Z,6.3
2017-12-29T13:30:05.056Z,6.3
2017-12-29T13:45:05.515Z,6.1
2017-12-29T14:00:05.315Z,6.1
2017-12-29T14:15:04.828Z,6.2
2017-12-29T14:30:04.975Z,6
2017-12-29T14:45:04.622Z,6.1
2017-12-29T15:00:05.019Z,5.7
2017-12-29T15:15:06.391Z,5.7
2017-12-29T15:30:08.288Z,5.7
2017-12-29T15:45:05.014Z,5.4
2017-12-29T16:00:07.914Z,5.2
2017-12-29T16:15:04.610Z,5.1
2017-12-29T16:30:06.096Z,4.9
2017-12-29T16:45:04.724Z,5.1
2017-12-29T17:00:05.675Z,5.1
2017-12-29T17:15:04.610Z,5.2
2017-12-29T17:30:04.685Z,4.9
2017-12-29T17:45:04.801Z,5
2017-12-29T18:00:05.606Z,5
2017-12-29T18:15:05.510Z,5
2017-12-29T18:30:05.667Z,4.7
2017-12-29T18:45:06.417Z,4.9
2017-12-29T19:00:04.835Z,5.2
2017-12-29T19:15:06.170Z,5.1
2017-12-29T19:30:05.001Z,5
2017-12-29T19:45:04.966Z,4.6
2017-12-29T20:00:04.340Z,4.4
2017-12-29T20:15:04.771Z,4.3
2017-12-29T20:30:04.405Z,4
2017-12-29T20:45:04.378Z,4.4
2017-12-29T21:00:04.901Z,4.9
2017-12-29T21:15:07.565Z,5.4
2017-12-29T21:30:05.227Z,5.8
2017-12-29T21:45:05.168Z,6
2017-12-29T22:00:05.056Z,5.8
2017-12-29T22:15:04.538Z,5.8
2017-12-29T22:30:05.757Z,5.8
2017-12-29T22:45:08.314Z,6
2017-12-29T23:00:23.918Z,6.3
2017-12-29T23:15:04.836Z,6.2
2017-12-29T23:30:06.077Z,6.2
2017-12-29T23:45:11.710Z,6.4
